Time;durP1;ratioP1;P1;durP2;ratioP2;P2;SDS_P1;SDS_P2;PMS_P1;PMS_P2;Temp;Humidity;BMP_temperature;BMP_pressure;BME280_temperature;BME280_humidity;BME280_pressure;Samples;Min_cycle;Max_cycle;Signal;HPM_P1;HPM_P2
2023/03/07 00:01:23;;;;;;;11.23;8.85;;;4.70;99.90;;;;;;5054152;28;20293;-86
2023/03/07 00:03:52;;;;;;;8.75;7.85;;;4.70;99.90;;;;;;5054074;28;20210;-85
2023/03/07 00:06:20;;;;;;;13.75;9.60;;;4.70;99.90;;;;;;5054316;28;20234;-86
2023/03/07 00:08:50;;;;;;;10.10;8.90;;;4.70;99.90;;;;;;5053802;28;20210;-85
2023/03/07 00:11:19;;;;;;;10.82;9.20;;;4.70;99.90;;;;;;5054113;28;20272;-85
2023/03/07 00:13:47;;;;;;;11.55;9.18;;;4.70;99.90;;;;;;5053972;28;20212;-85
2023/03/07 00:16:17;;;;;;;10.38;9.20;;;4.70;99.90;;;;;;5053710;28;20226;-86
2023/03/07 00:18:47;;;;;;;13.88;9.38;;;4.70;99.90;;;;;;5053672;28;20212;-86
2023/03/07 00:21:18;;;;;;;12.77;10.65;;;4.70;99.90;;;;;;5054306;28;20210;-86
2023/03/07 00:23:47;;;;;;;10.63;8.88;;;4.70;99.90;;;;;;5052476;28;20214;-86
2023/03/07 00:26:17;;;;;;;12.90;9.30;;;4.70;99.90;;;;;;5051714;28;20210;-86
2023/03/07 00:28:47;;;;;;;16.58;10.65;;;4.70;99.90;;;;;;5050693;28;20201;-86
2023/03/07 00:31:16;;;;;;;12.25;9.30;;;4.70;99.90;;;;;;5051356;28;20252;-86
2023/03/07 00:33:45;;;;;;;16.02;10.57;;;4.70;99.90;;;;;;5051028;28;20283;-85
2023/03/07 00:36:17;;;;;;;13.88;9.98;;;4.60;99.90;;;;;;5051155;28;20225;-86
2023/03/07 00:38:46;;;;;;;12.70;10.18;;;4.60;99.90;;;;;;5051024;28;20213;-85
2023/03/07 00:41:16;;;;;;;13.88;9.25;;;4.70;99.90;;;;;;5050590;28;20210;-85
2023/03/07 00:43:46;;;;;;;16.73;10.93;;;4.60;99.90;;;;;;5051509;28;20380;-86
2023/03/07 00:46:15;;;;;;;12.50;10.52;;;4.60;99.90;;;;;;5050749;28;20224;-86
2023/03/07 00:48:44;;;;;;;13.55;10.80;;;4.60;99.90;;;;;;5050332;28;20217;-86
2023/03/07 00:51:15;;;;;;;13.23;10.02;;;4.60;99.90;;;;;;5051035;28;20212;-86
2023/03/07 00:53:44;;;;;;;12.32;10.27;;;4.60;99.90;;;;;;5050466;28;20221;-85
2023/03/07 00:56:14;;;;;;;13.20;9.40;;;4.50;99.90;;;;;;5050959;28;20225;-86
2023/03/07 00:58:43;;;;;;;15.52;10.68;;;4.50;99.90;;;;;;5050336;28;20218;-85
2023/03/07 01:01:13;;;;;;;12.73;9.98;;;4.50;99.90;;;;;;5050874;28;20206;-86
2023/03/07 01:03:42;;;;;;;26.70;9.18;;;4.50;99.90;;;;;;5050867;28;20273;-86
2023/03/07 01:06:15;;;;;;;16.88;10.82;;;4.40;99.90;;;;;;5050602;28;20209;-86
2023/03/07 01:08:44;;;;;;;18.58;10.98;;;4.40;99.90;;;;;;5050147;28;20209;-86
2023/03/07 01:11:13;;;;;;;12.98;10.75;;;4.40;99.90;;;;;;5050524;28;20210;-86
2023/03/07 01:13:42;;;;;;;12.88;10.05;;;4.40;99.90;;;;;;5050812;28;20304;-86
2023/03/07 01:16:13;;;;;;;13.38;10.70;;;4.30;99.90;;;;;;5050206;28;20229;-85
2023/03/07 01:18:43;;;;;;;14.07;10.57;;;4.30;99.90;;;;;;5049836;28;20233;-85
2023/03/07 01:21:15;;;;;;;15.13;10.38;;;4.30;99.90;;;;;;5050636;28;20263;-85
2023/03/07 01:23:44;;;;;;;14.73;11.25;;;4.30;99.90;;;;;;5051246;28;20481;-85
2023/03/07 01:26:13;;;;;;;17.48;11.15;;;4.30;99.90;;;;;;5050157;28;20296;-85
2023/03/07 01:28:42;;;;;;;14.15;10.85;;;4.20;99.90;;;;;;5049298;28;20210;-85
2023/03/07 01:31:11;;;;;;;15.88;11.45;;;4.20;99.90;;;;;;5050351;28;20210;-85
2023/03/07 01:33:39;;;;;;;10.82;9.52;;;4.20;99.90;;;;;;5049892;28;20218;-86
2023/03/07 01:36:18;;;;;;;13.10;10.23;;;4.20;99.90;;;;;;5049998;28;20223;-85
2023/03/07 01:38:48;;;;;;;10.15;9.10;;;4.10;99.90;;;;;;5049824;28;20213;-85
2023/03/07 01:41:17;;;;;;;14.82;10.70;;;4.10;99.90;;;;;;5050390;28;20228;-85
2023/03/07 01:43:45;;;;;;;15.63;9.63;;;4.10;99.90;;;;;;5050043;28;20214;-85
2023/03/07 01:46:38;;;;;;;15.00;10.30;;;4.10;99.90;;;;;;5049904;28;20210;-87
2023/03/07 01:49:11;;;;;;;15.48;10.10;;;4.10;99.90;;;;;;5050293;28;20229;-86
2023/03/07 01:51:43;;;;;;;14.73;10.82;;;4.10;99.90;;;;;;5052446;28;20218;-86
2023/03/07 01:54:15;;;;;;;10.98;9.43;;;4.00;99.90;;;;;;5050607;28;20328;-86
2023/03/07 01:56:45;;;;;;;28.98;11.88;;;4.00;99.90;;;;;;5049429;28;20245;-86
2023/03/07 01:59:17;;;;;;;16.27;11.93;;;4.00;99.90;;;;;;5049885;28;20231;-86
2023/03/07 02:01:45;;;;;;;13.32;10.40;;;4.00;99.90;;;;;;5050266;28;20209;-86
2023/03/07 02:04:18;;;;;;;12.63;9.70;;;4.00;99.90;;;;;;5050053;28;20214;-86
2023/03/07 02:06:48;;;;;;;12.05;10.05;;;4.00;99.90;;;;;;5049542;28;20214;-86
2023/03/07 02:09:20;;;;;;;11.43;9.73;;;4.00;99.90;;;;;;5051335;28;20224;-86
2023/03/07 02:11:50;;;;;;;11.05;9.18;;;4.00;99.90;;;;;;5052643;28;20202;-87
2023/03/07 02:14:18;;;;;;;13.82;10.63;;;4.00;99.90;;;;;;5052409;28;20210;-85
2023/03/07 02:16:46;;;;;;;14.90;9.70;;;4.00;99.90;;;;;;5051542;28;20222;-85
2023/03/07 02:19:28;;;;;;;11.15;9.23;;;3.90;99.90;;;;;;5052316;28;20232;-85
2023/03/07 02:22:09;;;;;;;14.15;10.63;;;4.00;99.90;;;;;;5052560;28;20288;-85
2023/03/07 02:24:45;;;;;;;24.40;11.18;;;4.00;99.90;;;;;;5052439;28;20206;-85
2023/03/07 02:27:15;;;;;;;11.90;9.48;;;3.90;99.90;;;;;;5051990;28;20205;-85
2023/03/07 02:29:43;;;;;;;14.70;10.90;;;4.00;99.90;;;;;;5052173;28;20229;-85
2023/03/07 02:32:12;;;;;;;11.27;9.05;;;4.00;99.90;;;;;;5052467;28;20265;-86
2023/03/07 02:34:40;;;;;;;15.32;11.13;;;4.00;99.90;;;;;;5052158;28;20210;-85
2023/03/07 02:37:11;;;;;;;14.25;10.48;;;4.00;99.90;;;;;;5051462;28;20310;-86
2023/03/07 02:39:41;;;;;;;18.33;10.75;;;4.00;99.90;;;;;;5052068;28;20229;-85
2023/03/07 02:42:14;;;;;;;15.45;10.45;;;4.00;99.90;;;;;;5051811;28;20202;-85
2023/03/07 02:44:45;;;;;;;13.13;9.50;;;4.00;99.90;;;;;;5052424;28;20209;-85
2023/03/07 02:47:14;;;;;;;14.43;10.18;;;4.00;99.90;;;;;;5055305;28;20202;-85
2023/03/07 02:49:42;;;;;;;13.77;9.27;;;4.00;99.90;;;;;;5055445;28;20217;-85
2023/03/07 02:52:10;;;;;;;11.45;9.05;;;4.10;99.90;;;;;;5055602;28;20209;-85
2023/03/07 02:54:39;;;;;;;16.27;10.95;;;4.10;99.90;;;;;;5055426;28;20237;-85
2023/03/07 02:57:07;;;;;;;15.57;9.68;;;4.10;99.90;;;;;;5055038;28;20235;-85
2023/03/07 02:59:35;;;;;;;17.90;10.27;;;4.10;99.90;;;;;;5055360;28;20230;-86
2023/03/07 03:02:05;;;;;;;12.32;9.70;;;4.10;99.90;;;;;;5055236;28;20201;-85
2023/03/07 03:04:34;;;;;;;13.63;10.05;;;4.10;99.90;;;;;;5055270;28;20229;-85
2023/03/07 03:07:02;;;;;;;10.60;9.20;;;4.10;99.90;;;;;;5054747;28;20206;-84
2023/03/07 03:09:31;;;;;;;11.00;9.10;;;4.20;99.90;;;;;;5055134;28;20228;-85
2023/03/07 03:11:59;;;;;;;11.95;9.63;;;4.10;99.90;;;;;;5055996;28;20212;-85
2023/03/07 03:14:28;;;;;;;11.88;9.93;;;4.10;99.90;;;;;;5055395;28;20212;-85
2023/03/07 03:16:56;;;;;;;13.07;10.10;;;4.10;99.90;;;;;;5054629;28;20271;-87
2023/03/07 03:19:26;;;;;;;13.57;10.07;;;4.10;99.90;;;;;;5055187;28;20226;-87
2023/03/07 03:21:54;;;;;;;10.07;8.65;;;4.10;99.90;;;;;;5055696;28;20205;-87
2023/03/07 03:24:22;;;;;;;13.80;9.77;;;4.20;99.90;;;;;;5055313;28;20209;-87
2023/03/07 03:26:51;;;;;;;10.43;9.23;;;4.20;99.90;;;;;;5054441;28;20212;-86
2023/03/07 03:29:19;;;;;;;12.43;9.70;;;4.20;99.90;;;;;;5054655;28;20230;-85
2023/03/07 03:31:47;;;;;;;14.32;10.23;;;4.20;99.90;;;;;;5054559;28;20212;-85
2023/03/07 03:34:15;;;;;;;18.30;10.88;;;4.20;99.90;;;;;;5054698;28;20220;-85
2023/03/07 03:36:45;;;;;;;10.65;9.43;;;4.20;99.90;;;;;;5054636;28;20209;-85
2023/03/07 03:39:13;;;;;;;14.43;11.10;;;4.20;99.90;;;;;;5055010;28;20236;-86
2023/03/07 03:41:41;;;;;;;11.43;9.05;;;4.20;99.90;;;;;;5054245;28;20213;-85
2023/03/07 03:44:10;;;;;;;12.02;8.68;;;4.30;99.90;;;;;;5054598;28;20209;-85
2023/03/07 03:46:38;;;;;;;11.52;8.60;;;4.20;99.90;;;;;;5054465;28;20296;-85
2023/03/07 03:49:07;;;;;;;12.63;9.23;;;4.30;99.90;;;;;;5054312;28;20252;-85
2023/03/07 03:51:35;;;;;;;9.88;8.82;;;4.30;99.90;;;;;;5054741;28;20209;-85
2023/03/07 03:54:05;;;;;;;20.75;9.88;;;4.20;99.90;;;;;;5054515;28;20202;-85
2023/03/07 03:56:33;;;;;;;17.65;11.23;;;4.30;99.90;;;;;;5053991;28;20213;-85
2023/03/07 03:59:01;;;;;;;12.15;9.48;;;4.20;99.90;;;;;;5052711;28;20230;-85
2023/03/07 04:01:30;;;;;;;14.48;10.77;;;4.30;99.90;;;;;;5053988;28;20219;-85
2023/03/07 04:03:58;;;;;;;13.00;9.95;;;4.30;99.90;;;;;;5054631;28;20205;-85
2023/03/07 04:06:29;;;;;;;12.18;9.32;;;4.30;99.90;;;;;;5054219;28;20218;-85
2023/03/07 04:08:58;;;;;;;13.43;10.25;;;4.20;99.90;;;;;;5053687;28;20221;-85
2023/03/07 04:11:28;;;;;;;14.05;10.27;;;4.20;99.90;;;;;;5054113;28;20208;-85
2023/03/07 04:13:56;;;;;;;18.00;10.25;;;4.10;99.90;;;;;;5054332;28;20212;-86
2023/03/07 04:16:24;;;;;;;13.27;9.50;;;4.10;99.90;;;;;;5054475;28;20210;-86
2023/03/07 04:18:52;;;;;;;12.70;10.32;;;4.10;99.90;;;;;;5053312;28;20249;-85
2023/03/07 04:21:21;;;;;;;13.45;9.73;;;4.10;99.90;;;;;;5053855;28;20221;-85
2023/03/07 04:23:54;;;;;;;11.65;9.82;;;4.10;99.90;;;;;;5053967;28;20218;-85
2023/03/07 04:26:22;;;;;;;10.77;8.30;;;4.10;99.90;;;;;;5053806;28;20205;-85
2023/03/07 04:28:52;;;;;;;15.90;9.50;;;4.10;99.90;;;;;;5053301;28;20208;-85
2023/03/07 04:31:23;;;;;;;15.55;9.90;;;4.10;99.90;;;;;;5054068;28;20216;-85
2023/03/07 04:33:53;;;;;;;11.35;9.32;;;4.10;99.90;;;;;;5053631;28;20201;-85
2023/03/07 04:36:23;;;;;;;14.85;10.02;;;4.10;99.90;;;;;;5053815;28;20217;-85
2023/03/07 04:38:51;;;;;;;11.63;8.95;;;4.00;99.90;;;;;;5052624;28;20236;-84
2023/03/07 04:41:22;;;;;;;47.50;9.65;;;4.10;99.90;;;;;;5053604;28;20214;-84
2023/03/07 04:43:52;;;;;;;13.05;9.98;;;4.10;99.90;;;;;;5053637;28;20236;-85
2023/03/07 04:46:21;;;;;;;11.18;8.70;;;4.10;99.90;;;;;;5053332;28;20209;-85
2023/03/07 04:48:49;;;;;;;11.13;8.77;;;4.10;99.90;;;;;;5052963;28;20205;-84
2023/03/07 04:51:17;;;;;;;12.40;8.98;;;4.10;99.90;;;;;;5053446;28;20210;-85
2023/03/07 04:53:45;;;;;;;17.83;8.95;;;4.10;99.90;;;;;;5053238;28;20205;-85
2023/03/07 04:56:15;;;;;;;10.75;8.40;;;4.10;99.90;;;;;;5053502;28;20220;-85
2023/03/07 04:58:44;;;;;;;10.93;8.68;;;4.10;99.90;;;;;;5052428;28;20221;-85
2023/03/07 05:01:14;;;;;;;10.25;8.60;;;4.00;99.90;;;;;;5052849;28;20233;-85
2023/03/07 05:03:43;;;;;;;15.35;9.65;;;4.00;99.90;;;;;;5055538;28;20274;-85
2023/03/07 05:06:14;;;;;;;11.85;8.60;;;4.10;99.90;;;;;;5055101;28;20213;-85
2023/03/07 05:08:42;;;;;;;9.90;7.90;;;4.10;99.90;;;;;;5052787;28;20289;-85
2023/03/07 05:11:11;;;;;;;8.88;7.97;;;4.00;99.90;;;;;;5053323;28;20206;-85
2023/03/07 05:13:39;;;;;;;13.70;9.57;;;4.10;99.90;;;;;;5052977;28;20382;-85
2023/03/07 05:16:08;;;;;;;9.35;8.38;;;4.10;99.90;;;;;;5052972;28;20210;-86
2023/03/07 05:18:37;;;;;;;11.80;8.45;;;4.10;99.90;;;;;;5052402;28;20311;-85
2023/03/07 05:21:06;;;;;;;10.43;7.93;;;4.10;99.90;;;;;;5052821;28;20212;-86
2023/03/07 05:23:34;;;;;;;12.60;9.05;;;4.10;99.90;;;;;;5052906;28;20206;-85
2023/03/07 05:26:02;;;;;;;13.35;8.90;;;4.10;99.90;;;;;;5052641;28;20212;-86
2023/03/07 05:28:30;;;;;;;15.23;9.20;;;4.20;99.90;;;;;;5052094;28;20229;-85
2023/03/07 05:30:59;;;;;;;10.60;8.48;;;4.20;99.90;;;;;;5052631;28;20229;-85
2023/03/07 05:33:27;;;;;;;14.77;9.63;;;4.20;99.90;;;;;;5052718;28;20205;-86
2023/03/07 05:35:59;;;;;;;13.85;9.32;;;4.20;99.90;;;;;;5053136;28;20198;-85
2023/03/07 05:38:27;;;;;;;9.60;7.93;;;4.30;99.90;;;;;;5052443;28;20306;-85
2023/03/07 05:40:56;;;;;;;9.63;8.48;;;4.30;99.90;;;;;;5052636;28;20233;-85
2023/03/07 05:43:24;;;;;;;17.95;8.98;;;4.30;99.90;;;;;;5052522;28;20218;-85
2023/03/07 05:45:52;;;;;;;8.82;7.93;;;4.30;99.90;;;;;;5052386;28;20203;-86
2023/03/07 05:48:20;;;;;;;12.25;9.38;;;4.30;99.90;;;;;;5052672;28;20252;-85
2023/03/07 05:50:48;;;;;;;14.80;10.25;;;4.30;99.90;;;;;;5052733;28;20229;-85
2023/03/07 05:53:18;;;;;;;15.05;10.75;;;4.30;99.90;;;;;;5052646;28;20206;-86
2023/03/07 05:55:47;;;;;;;11.90;9.48;;;4.30;99.90;;;;;;5052750;28;20213;-85
2023/03/07 05:58:16;;;;;;;9.85;8.15;;;4.30;99.90;;;;;;5052213;28;20213;-85
2023/03/07 06:00:44;;;;;;;9.30;8.18;;;4.30;99.90;;;;;;5052118;28;20232;-85
2023/03/07 06:03:12;;;;;;;12.88;8.77;;;4.40;99.90;;;;;;5052597;28;20217;-86
2023/03/07 06:05:41;;;;;;;7.85;7.10;;;4.40;99.90;;;;;;5052322;28;20217;-85
2023/03/07 06:08:09;;;;;;;9.25;7.75;;;4.40;99.90;;;;;;5051578;28;20213;-85
2023/03/07 06:10:39;;;;;;;11.35;7.55;;;4.40;99.90;;;;;;5052399;28;20236;-85
2023/03/07 06:13:07;;;;;;;8.35;6.93;;;4.40;99.90;;;;;;5052527;28;20202;-85
2023/03/07 06:15:36;;;;;;;8.13;7.05;;;4.50;99.90;;;;;;5052728;28;20204;-85
2023/03/07 06:18:05;;;;;;;25.60;8.63;;;4.50;99.90;;;;;;5052027;28;20213;-85
2023/03/07 06:20:33;;;;;;;10.32;7.07;;;4.50;99.90;;;;;;5052771;28;20229;-85
2023/03/07 06:23:01;;;;;;;8.60;7.13;;;4.60;99.90;;;;;;5056023;28;20210;-85
2023/03/07 06:25:30;;;;;;;15.40;9.75;;;4.60;99.90;;;;;;5056243;28;20221;-85
2023/03/07 06:28:00;;;;;;;11.82;9.07;;;4.60;99.90;;;;;;5055838;28;20205;-85
2023/03/07 06:30:28;;;;;;;22.98;8.68;;;4.60;99.90;;;;;;5056309;28;20232;-85
2023/03/07 06:32:57;;;;;;;8.65;7.45;;;4.60;99.90;;;;;;5056025;28;20206;-86
2023/03/07 06:35:25;;;;;;;9.77;8.13;;;4.60;99.90;;;;;;5055672;28;20213;-86
2023/03/07 06:37:53;;;;;;;13.93;8.18;;;4.60;99.90;;;;;;5055706;28;20209;-85
2023/03/07 06:40:21;;;;;;;10.88;7.53;;;4.60;99.90;;;;;;5055770;28;20230;-85
2023/03/07 06:42:52;;;;;;;9.55;7.72;;;4.60;99.90;;;;;;5056015;28;20204;-85
2023/03/07 06:45:22;;;;;;;14.98;8.25;;;4.60;99.90;;;;;;5055735;28;20216;-85
2023/03/07 06:47:50;;;;;;;9.48;8.35;;;4.60;99.90;;;;;;5055527;28;20212;-85
2023/03/07 06:50:19;;;;;;;11.68;9.15;;;4.70;99.90;;;;;;5055472;28;20237;-85
2023/03/07 06:53:01;;;;;;;10.85;9.35;;;4.80;99.90;;;;;;5059293;28;20267;-88
2023/03/07 06:55:29;;;;;;;12.02;8.65;;;4.80;99.90;;;;;;5067892;28;20217;-92
2023/03/07 06:57:58;;;;;;;9.63;8.10;;;4.90;99.90;;;;;;5054955;28;20217;-88
2023/03/07 07:00:27;;;;;;;10.70;8.40;;;4.90;99.90;;;;;;5054333;28;20230;-90
2023/03/07 07:02:56;;;;;;;9.23;8.23;;;5.00;99.90;;;;;;5069412;28;20189;-90
2023/03/07 07:05:24;;;;;;;17.50;8.27;;;5.00;99.90;;;;;;5086642;28;20265;-90
2023/03/07 07:07:53;;;;;;;11.27;7.63;;;5.00;99.90;;;;;;5082932;28;20201;-89
2023/03/07 07:10:21;;;;;;;11.32;8.23;;;5.10;99.90;;;;;;5070429;28;20224;-90
2023/03/07 07:12:53;;;;;;;10.60;8.57;;;5.10;99.90;;;;;;5092412;28;20215;-89
2023/03/07 07:15:21;;;;;;;10.30;8.02;;;5.20;99.90;;;;;;5095230;28;20200;-90
2023/03/07 07:17:52;;;;;;;11.82;8.27;;;5.10;99.90;;;;;;5094789;28;20291;-90
2023/03/07 07:20:20;;;;;;;11.68;8.68;;;5.10;99.90;;;;;;5095056;28;20234;-89
2023/03/07 07:22:49;;;;;;;15.07;8.70;;;5.20;99.90;;;;;;5095593;28;20211;-88
2023/03/07 07:25:17;;;;;;;10.48;8.10;;;5.30;99.90;;;;;;5079683;28;20208;-90
2023/03/07 07:27:45;;;;;;;11.80;8.18;;;5.20;99.90;;;;;;5063663;28;20204;-90
2023/03/07 07:30:14;;;;;;;10.40;7.72;;;5.30;99.90;;;;;;5074630;28;20223;-90
2023/03/07 07:32:43;;;;;;;10.88;7.93;;;5.30;99.90;;;;;;5060237;28;20210;-91
2023/03/07 07:35:13;;;;;;;10.82;7.70;;;5.40;99.90;;;;;;5072926;28;20200;-90
2023/03/07 07:37:42;;;;;;;11.35;7.82;;;5.50;99.90;;;;;;5085803;28;20201;-89
2023/03/07 07:40:11;;;;;;;16.27;8.50;;;5.50;99.90;;;;;;5095014;28;20236;-91
2023/03/07 07:42:39;;;;;;;11.95;7.53;;;5.60;99.90;;;;;;5094794;28;20208;-90
2023/03/07 07:45:08;;;;;;;9.55;7.30;;;5.60;99.90;;;;;;5094677;28;20204;-89
2023/03/07 07:47:37;;;;;;;14.65;8.25;;;5.70;99.90;;;;;;5093243;28;20204;-90
2023/03/07 07:50:06;;;;;;;11.63;9.15;;;5.70;99.90;;;;;;5088021;28;20213;-90
2023/03/07 07:52:36;;;;;;;11.68;8.02;;;5.80;99.90;;;;;;5074407;28;20221;-90
2023/03/07 07:55:05;;;;;;;12.48;8.18;;;5.90;99.90;;;;;;5074324;28;20209;-90
2023/03/07 07:57:34;;;;;;;9.43;8.38;;;6.00;99.90;;;;;;5073811;28;20243;-90
2023/03/07 08:00:02;;;;;;;18.33;9.35;;;6.10;99.90;;;;;;5074611;28;20224;-90
2023/03/07 08:02:31;;;;;;;14.50;8.45;;;6.20;99.90;;;;;;5073906;28;20300;-90
2023/03/07 08:04:59;;;;;;;10.93;8.73;;;6.40;99.90;;;;;;5074101;28;20217;-90
2023/03/07 08:07:27;;;;;;;9.82;7.78;;;6.50;99.90;;;;;;5074021;28;20205;-91
2023/03/07 08:09:57;;;;;;;9.85;8.45;;;6.50;99.90;;;;;;5074165;28;20252;-90
2023/03/07 08:12:25;;;;;;;11.23;8.60;;;6.60;99.90;;;;;;5090527;28;20233;-90
2023/03/07 08:14:55;;;;;;;13.15;9.25;;;6.70;99.90;;;;;;5095110;28;20239;-87
2023/03/07 08:17:23;;;;;;;11.40;8.55;;;6.80;99.90;;;;;;5092567;28;20220;-86
2023/03/07 08:19:51;;;;;;;12.52;9.02;;;6.90;99.90;;;;;;5096171;28;20296;-86
2023/03/07 08:22:19;;;;;;;8.40;7.60;;;7.00;99.90;;;;;;5072807;28;20210;-86
2023/03/07 08:24:49;;;;;;;11.95;8.60;;;7.00;99.90;;;;;;5054194;28;20230;-86
2023/03/07 08:27:19;;;;;;;10.50;8.68;;;7.00;99.90;;;;;;5053559;28;20202;-86
2023/03/07 08:29:48;;;;;;;;;;;7.10;99.90;;;;;;5058565;28;20161;-86
2023/03/07 08:32:16;;;;;;;;;;;7.30;99.90;;;;;;5067429;28;19924;-86
2023/03/07 08:34:44;;;;;;;;;;;7.50;99.90;;;;;;5054303;28;19920;-86
2023/03/07 08:37:13;;;;;;;;;;;7.50;99.90;;;;;;5053218;28;19927;-87
2023/03/07 08:39:41;;;;;;;;;;;7.60;99.90;;;;;;5054957;28;19921;-87
2023/03/07 08:42:09;;;;;;;;;;;7.70;99.90;;;;;;5054034;28;19921;-87
2023/03/07 08:44:38;;;;;;;;;;;7.80;99.90;;;;;;5053514;28;19927;-87
2023/03/07 08:47:07;;;;;;;;;;;8.00;99.90;;;;;;5058660;28;19969;-87
2023/03/07 08:49:35;;;;;;;;;;;8.10;99.90;;;;;;5053617;28;19921;-87
2023/03/07 08:52:04;;;;;;;;;;;8.20;99.90;;;;;;5053765;28;19975;-87
2023/03/07 08:54:32;;;;;;;;;;;8.20;99.90;;;;;;5053997;28;19921;-87
2023/03/07 08:57:00;;;;;;;;;;;8.20;99.90;;;;;;5053317;28;19925;-87
2023/03/07 08:59:28;;;;;;;;;;;8.20;99.90;;;;;;5053532;28;19969;-87
2023/03/07 09:01:58;;;;;;;;;;;8.20;99.90;;;;;;5053200;28;20001;-87
2023/03/07 09:04:26;;;;;;;;;;;8.20;99.90;;;;;;5072421;28;20114;-87
2023/03/07 09:06:55;;;;;;;;;;;8.30;99.90;;;;;;5073250;28;19991;-87
2023/03/07 09:09:23;;;;;;;;;;;8.40;99.90;;;;;;5073312;28;19955;-87
2023/03/07 09:11:52;;;;;;;;;;;8.40;99.90;;;;;;5084870;28;19960;-87
2023/03/07 09:14:20;;;;;;;;;;;8.50;99.90;;;;;;5093081;28;19924;-90
2023/03/07 09:16:48;;;;;;;;;;;8.70;99.90;;;;;;5085650;28;19931;-91
2023/03/07 09:19:18;;;;;;;;;;;8.90;99.90;;;;;;5090763;28;19920;-88
2023/03/07 09:21:46;;;;;;;;;;;9.10;99.90;;;;;;5093391;28;19960;-90
2023/03/07 09:24:14;;;;;;;;;;;9.40;99.90;;;;;;5086018;28;19956;-88
2023/03/07 09:26:42;;;;;;;;;;;9.50;99.90;;;;;;5087857;28;19926;-89
2023/03/07 09:29:11;;;;;;;;;;;9.60;99.90;;;;;;5091751;28;19965;-88
2023/03/07 09:31:40;;;;;;;;;;;9.70;99.90;;;;;;5072761;28;19950;-87
2023/03/07 09:34:08;;;;;;;;;;;9.70;99.90;;;;;;5072640;28;19921;-86
2023/03/07 09:36:38;;;;;;;;;;;9.80;99.90;;;;;;5072970;28;19927;-87
2023/03/07 09:39:06;;;;;;;;;;;9.80;99.90;;;;;;5072708;28;19920;-87
2023/03/07 09:41:55;;;;;;;;;;;9.70;99.90;;;;;;5057624;28;19959;-78
2023/03/07 09:44:31;;;;;;;;;;;9.90;99.90;;;;;;5053232;28;19947;-86
2023/03/07 09:47:09;;;;;;;;;;;10.20;99.90;;;;;;5052575;28;19924;-87
2023/03/07 09:49:40;;;;;;;;;;;10.40;99.90;;;;;;5052986;28;19925;-86
2023/03/07 09:52:13;;;;;;;;;;;10.80;99.90;;;;;;5052901;28;20015;-85
2023/03/07 09:54:44;;;;;;;;;;;11.10;99.90;;;;;;5053192;28;20022;-87
2023/03/07 09:57:14;;;;;;;;;;;11.40;99.30;;;;;;5056323;28;19959;-87
2023/03/07 09:59:47;;;;;;;11.40;7.43;;;11.40;98.60;;;;;;5064539;28;19956;-86
2023/03/07 10:02:20;;;;;;;7.63;6.93;;;11.40;98.40;;;;;;5079729;28;20232;-86
2023/03/07 10:04:54;;;;;;;9.45;6.80;;;11.30;95.80;;;;;;5061610;28;20232;-88
2023/03/07 10:07:26;;;;;;;10.80;7.50;;;11.40;95.10;;;;;;5056185;28;20212;-87
2023/03/07 10:10:00;;;;;;;7.68;6.97;;;11.40;95.60;;;;;;5057039;28;20237;-88
2023/03/07 10:12:45;;;;;;;7.90;6.75;;;11.10;94.30;;;;;;5080825;28;20237;-88
2023/03/07 10:15:34;;;;;;;19.85;7.38;;;10.90;95.90;;;;;;5076360;28;20205;-88
2023/03/07 10:18:21;;;;;;;9.18;8.27;;;10.60;95.00;;;;;;5075752;28;20214;-87
2023/03/07 10:20:53;;;;;;;8.60;6.30;;;10.70;96.30;;;;;;5075861;28;20316;-87
2023/03/07 10:24:06;;;;;;;11.23;6.28;;;10.90;96.70;;;;;;5076214;28;20208;-87
2023/03/07 10:26:40;;;;;;;8.00;6.22;;;11.30;94.80;;;;;;5033987;28;20217;-86
2023/03/07 10:29:14;;;;;;;8.27;7.28;;;11.40;92.70;;;;;;5068104;28;20253;-86
2023/03/07 10:31:47;;;;;;;11.02;8.40;;;11.40;94.40;;;;;;5075527;28;20198;-86
2023/03/07 10:34:20;;;;;;;11.80;7.88;;;11.30;95.40;;;;;;5075563;28;20263;-86
2023/03/07 10:37:00;;;;;;;7.95;7.15;;;11.30;96.00;;;;;;5075538;28;20219;-85
2023/03/07 10:39:43;;;;;;;12.90;6.93;;;11.40;96.00;;;;;;5075791;28;20229;-86
2023/03/07 10:42:13;;;;;;;9.43;7.47;;;11.30;95.20;;;;;;5074612;28;20296;-86
2023/03/07 10:44:44;;;;;;;11.93;7.65;;;11.10;95.30;;;;;;5074798;28;20283;-87
2023/03/07 10:47:20;;;;;;;10.15;8.05;;;10.80;95.10;;;;;;5058937;28;20237;-86
2023/03/07 10:49:51;;;;;;;13.80;8.50;;;10.60;95.30;;;;;;5055720;28;20312;-88
2023/03/07 10:52:30;;;;;;;7.32;6.60;;;10.70;95.40;;;;;;5055556;28;20224;-85
2023/03/07 10:55:34;;;;;;;13.88;7.53;;;10.70;95.90;;;;;;5055863;28;20214;-86
2023/03/07 10:58:22;;;;;;;11.55;6.47;;;10.80;95.10;;;;;;5048784;28;20210;-87
2023/03/07 11:01:03;;;;;;;9.65;6.35;;;10.90;94.90;;;;;;5055082;28;20225;-86
2023/03/07 11:03:38;;;;;;;8.55;7.32;;;10.80;94.60;;;;;;5061001;28;20204;-85
2023/03/07 11:06:39;;;;;;;9.32;7.35;;;10.80;95.10;;;;;;5055038;28;20229;-86
2023/03/07 11:09:16;;;;;;;8.07;7.38;;;10.50;96.40;;;;;;5055170;28;20275;-86
2023/03/07 11:11:52;;;;;;;9.43;7.45;;;10.20;96.70;;;;;;5074939;28;20204;-85
2023/03/07 11:14:23;;;;;;;9.30;7.75;;;10.20;97.50;;;;;;5094244;28;20241;-86
2023/03/07 11:16:54;;;;;;;17.73;9.98;;;10.10;98.00;;;;;;5093930;28;20204;-85
2023/03/07 11:19:38;;;;;;;9.93;8.93;;;10.20;98.60;;;;;;5095405;28;20224;-86
2023/03/07 11:22:19;;;;;;;13.07;8.50;;;10.20;99.10;;;;;;5082707;28;20217;-85
2023/03/07 11:24:54;;;;;;;10.13;8.20;;;10.30;99.10;;;;;;5082128;28;20204;-87
2023/03/07 11:27:25;;;;;;;12.80;9.43;;;10.50;99.10;;;;;;5074866;28;20208;-86
2023/03/07 11:30:15;;;;;;;8.95;7.93;;;11.00;98.50;;;;;;5074858;28;20232;-86
2023/03/07 11:32:52;;;;;;;10.15;8.32;;;11.30;97.70;;;;;;5074827;28;20209;-87
2023/03/07 11:35:23;;;;;;;9.73;7.72;;;11.40;97.70;;;;;;5074937;28;20229;-86
2023/03/07 11:38:02;;;;;;;9.23;7.57;;;11.70;97.50;;;;;;5074386;28;20214;-86
2023/03/07 11:40:33;;;;;;;8.18;7.40;;;12.20;96.90;;;;;;5074466;28;20268;-87
2023/03/07 11:43:16;;;;;;;10.52;8.20;;;12.70;96.80;;;;;;5074444;28;20324;-86
2023/03/07 11:45:52;;;;;;;14.40;8.50;;;13.10;95.80;;;;;;5074508;28;20223;-86
2023/03/07 11:48:35;;;;;;;9.98;7.97;;;13.10;95.10;;;;;;5066058;28;20216;-86
2023/03/07 11:51:06;;;;;;;9.80;8.35;;;13.00;95.70;;;;;;5054325;28;20202;-86
2023/03/07 11:53:52;;;;;;;11.60;8.10;;;13.10;95.60;;;;;;5054690;28;20218;-86
2023/03/07 11:56:25;;;;;;;8.20;7.35;;;13.30;95.00;;;;;;5054541;28;20220;-87
2023/03/07 11:59:39;;;;;;;8.07;7.28;;;13.30;94.20;;;;;;5053072;28;20242;-87
2023/03/07 12:02:21;;;;;;;;;;;13.00;94.60;;;;;;5065319;28;20056;-86
2023/03/07 12:05:11;;;;;;;7.65;6.93;;;13.20;95.40;;;;;;5074113;28;20088;-86
2023/03/07 12:07:57;;;;;;;8.68;7.78;;;13.30;95.10;;;;;;5061658;28;20213;-85
2023/03/07 12:10:37;;;;;;;8.88;7.90;;;13.50;93.90;;;;;;5073549;28;20243;-92
2023/03/07 12:13:14;;;;;;;9.25;7.78;;;13.40;93.30;;;;;;5054404;28;20226;-86
2023/03/07 12:15:47;;;;;;;;;;;13.40;93.10;;;;;;5054428;28;20061;-84
2023/03/07 12:18:37;;;;;;;14.07;7.20;;;13.50;93.70;;;;;;5053030;28;20280;-91
2023/03/07 12:21:22;;;;;;;11.77;7.80;;;13.70;94.00;;;;;;5052673;28;20225;-81
2023/03/07 12:23:56;;;;;;;8.18;6.80;;;13.50;93.80;;;;;;5053721;28;20045;-85
2023/03/07 12:26:28;;;;;;;7.43;6.70;;;13.60;94.20;;;;;;5062839;28;20219;-85
2023/03/07 12:29:02;;;;;;;6.78;6.15;;;13.80;93.90;;;;;;5073397;28;20306;-85
2023/03/07 12:31:32;;;;;;;;;;;14.00;93.90;;;;;;5074110;28;20226;-85
2023/03/07 12:34:04;;;;;;;;;;;13.90;93.90;;;;;;5060656;28;20302;-84
2023/03/07 12:36:42;;;;;;;7.85;6.50;;;13.70;93.80;;;;;;5070233;28;20204;-85
2023/03/07 12:39:18;;;;;;;5.68;5.18;;;13.80;92.60;;;;;;5091205;28;20228;-84
2023/03/07 12:41:56;;;;;;;6.70;6.05;;;14.00;92.90;;;;;;5056436;28;20211;-87
2023/03/07 12:44:35;;;;;;;9.05;5.93;;;13.80;93.60;;;;;;5053481;28;20201;-87
2023/03/07 12:47:19;;;;;;;6.22;5.63;;;13.80;94.30;;;;;;5070997;28;20186;-84
2023/03/07 12:49:55;;;;;;;7.10;5.72;;;14.00;94.00;;;;;;5074474;28;20237;-84
2023/03/07 12:52:38;;;;;;;7.63;5.82;;;13.90;94.10;;;;;;5065038;28;20139;-84
2023/03/07 12:55:18;;;;;;;6.43;5.65;;;13.70;94.50;;;;;;5075180;28;20141;-84
2023/03/07 12:57:53;;;;;;;7.25;5.03;;;13.40;94.40;;;;;;5057391;28;20205;-86
2023/03/07 13:00:23;;;;;;;5.88;5.18;;;13.40;95.00;;;;;;5076029;28;20212;-84
2023/03/07 13:03:00;;;;;;;6.25;5.28;;;13.30;94.80;;;;;;5081001;28;20221;-84
2023/03/07 13:05:32;;;;;;;6.43;5.82;;;13.20;94.90;;;;;;5072871;28;20216;-84
2023/03/07 13:08:01;;;;;;;5.63;5.13;;;13.00;94.60;;;;;;5071439;28;20201;-84
2023/03/07 13:10:31;;;;;;;11.02;6.03;;;12.90;95.00;;;;;;5073158;28;20231;-85
2023/03/07 13:12:59;;;;;;;6.05;5.45;;;12.90;94.50;;;;;;5075683;28;20193;-84
2023/03/07 13:16:02;;;;;;;5.78;5.20;;;12.80;94.20;;;;;;5072932;28;20208;-84
2023/03/07 13:18:31;;;;;;;5.05;4.63;;;12.80;94.50;;;;;;5072486;28;20214;-84